Time;durP1;ratioP1;P1;durP2;ratioP2;P2;SDS_P1;SDS_P2;PMS_P1;PMS_P2;Temp;Humidity;BMP_temperature;BMP_pressure;BME280_temperature;BME280_humidity;BME280_pressure;Samples;Min_cycle;Max_cycle;Signal;HPM_P1;HPM_P2
2023/03/27 00:00:49;;;;;;;18.23;12.27;;;;;;;6.49;72.41;97971.19;5031830;28;20407;-59
2023/03/27 00:03:16;;;;;;;19.50;13.68;;;;;;;6.49;72.38;97984.47;5033187;28;20033;-56
2023/03/27 00:05:43;;;;;;;17.30;12.55;;;;;;;6.50;72.09;97978.19;5031456;28;20048;-60
2023/03/27 00:08:08;;;;;;;16.17;11.05;;;;;;;6.50;72.06;97984.34;5032402;28;20069;-59
2023/03/27 00:10:35;;;;;;;16.92;12.75;;;;;;;6.52;72.04;97982.38;5033409;28;20427;-57
2023/03/27 00:13:02;;;;;;;28.23;17.95;;;;;;;6.50;72.23;97981.69;5033725;28;20048;-58
2023/03/27 00:15:29;;;;;;;14.77;11.18;;;;;;;6.46;71.78;97983.78;5033598;28;20037;-57
2023/03/27 00:17:57;;;;;;;23.02;15.45;;;;;;;6.44;72.15;97974.28;5033001;28;20352;-57
2023/03/27 00:20:25;;;;;;;17.75;12.75;;;;;;;6.43;72.21;97978.75;5032595;28;20040;-58
2023/03/27 00:22:55;;;;;;;18.95;13.35;;;;;;;6.42;72.45;97981.56;5033473;28;20364;-56
2023/03/27 00:25:22;;;;;;;15.02;10.90;;;;;;;6.46;71.60;97988.28;5024142;28;20034;-56
2023/03/27 00:27:48;;;;;;;17.33;11.85;;;;;;;6.39;72.19;97984.50;5013217;28;20369;-58
2023/03/27 00:30:14;;;;;;;23.25;15.68;;;;;;;6.44;72.06;97985.75;5013291;28;20441;-59
2023/03/27 00:32:40;;;;;;;13.65;10.32;;;;;;;6.46;71.71;97988.28;5013556;28;20046;-57
2023/03/27 00:35:08;;;;;;;16.80;10.93;;;;;;;6.43;71.47;97986.72;5012500;28;20033;-55
2023/03/27 00:37:34;;;;;;;12.43;10.23;;;;;;;6.46;71.40;97989.09;5013093;28;20127;-60
2023/03/27 00:40:00;;;;;;;18.40;12.68;;;;;;;6.45;72.03;97991.91;5012388;28;20034;-58
2023/03/27 00:42:26;;;;;;;19.63;13.70;;;;;;;6.43;71.61;97994.72;5012301;28;20033;-57
2023/03/27 00:44:52;;;;;;;14.88;11.15;;;;;;;6.42;71.41;97993.03;5018312;28;20033;-53
2023/03/27 00:47:32;;;;;;;23.15;14.68;;;;;;;6.49;71.68;98006.59;5032397;28;20048;-56
2023/03/27 00:50:01;;;;;;;13.15;9.50;;;;;;;6.42;71.59;97995.69;5017610;28;20432;-58
2023/03/27 00:52:30;;;;;;;20.38;14.32;;;;;;;6.41;71.57;97993.19;5013171;28;20040;-59
2023/03/27 00:55:03;;;;;;;13.85;10.23;;;;;;;6.37;71.72;97987.31;5013012;28;20042;-59
2023/03/27 00:57:30;;;;;;;13.18;9.45;;;;;;;6.30;71.54;97991.53;5012666;28;20356;-53
2023/03/27 00:59:57;;;;;;;11.52;8.70;;;;;;;6.24;71.75;97990.28;5013124;28;20030;-56
2023/03/27 01:02:23;;;;;;;10.82;8.52;;;;;;;6.21;71.90;98003.00;5013007;28;20037;-56
2023/03/27 01:04:49;;;;;;;14.15;10.55;;;;;;;5.99;71.98;97965.06;5027936;28;20030;-56
2023/03/27 01:07:15;;;;;;;16.25;10.52;;;;;;;6.25;71.82;97996.41;5030811;28;20036;-55
2023/03/27 01:09:41;;;;;;;11.00;9.10;;;;;;;6.26;71.63;98003.41;5031657;28;20029;-56
2023/03/27 01:12:09;;;;;;;12.05;9.55;;;;;;;6.30;72.39;98007.47;5030823;28;20343;-57
2023/03/27 01:14:51;;;;;;;11.43;8.63;;;;;;;6.37;72.16;97995.28;5013175;28;20034;-57
2023/03/27 01:17:20;;;;;;;13.27;9.63;;;;;;;6.32;72.04;97995.69;5012464;28;20040;-55
2023/03/27 01:20:12;;;;;;;21.65;14.60;;;;;;;6.42;71.98;97998.34;5012732;28;20396;-56
2023/03/27 01:22:47;;;;;;;12.18;8.60;;;;;;;6.42;71.52;98002.84;5013036;28;20342;-61
2023/03/27 01:25:34;;;;;;;11.43;9.13;;;;;;;6.39;71.77;98006.63;5021269;28;20037;-60
2023/03/27 01:28:37;;;;;;;12.15;8.40;;;;;;;6.43;71.47;98005.34;5032245;28;20057;-58
2023/03/27 01:31:24;;;;;;;10.55;7.53;;;;;;;6.41;71.87;97994.00;5032107;28;20033;-59
2023/03/27 01:34:24;;;;;;;13.65;9.80;;;;;;;6.44;71.40;97998.22;5032320;28;20029;-58
2023/03/27 01:37:15;;;;;;;10.93;8.07;;;;;;;6.45;71.33;97994.59;5023870;28;20033;-57
2023/03/27 01:39:43;;;;;;;13.35;9.52;;;;;;;6.30;71.52;97989.69;5036238;28;20120;-64
2023/03/27 01:42:41;;;;;;;12.20;8.23;;;;;;;6.40;71.92;97989.69;5036097;28;20042;-53
2023/03/27 01:45:24;;;;;;;11.90;8.77;;;;;;;6.29;71.40;97982.69;5018857;28;20054;-56
2023/03/27 01:48:07;;;;;;;17.05;11.30;;;;;;;6.23;71.40;97993.06;5016343;28;20121;-54
2023/03/27 01:50:44;;;;;;;18.55;11.38;;;;;;;6.25;71.79;97991.09;5015977;28;20044;-58
2023/03/27 01:53:29;;;;;;;29.92;16.70;;;;;;;6.16;72.07;97995.47;5016713;28;20030;-58
2023/03/27 01:56:04;;;;;;;12.55;9.40;;;;;;;6.17;71.85;97990.00;5015698;28;20038;-56
2023/03/27 01:58:38;;;;;;;31.65;18.23;;;;;;;6.19;71.99;97997.84;5021272;28;20374;-58
2023/03/27 02:01:07;;;;;;;20.50;13.65;;;;;;;6.14;72.30;97995.59;5026673;28;20380;-59
2023/03/27 02:03:40;;;;;;;17.55;10.82;;;;;;;6.20;71.80;98002.16;5035792;28;20093;-57
2023/03/27 02:06:18;;;;;;;12.38;8.55;;;;;;;6.15;71.94;97996.44;5035464;28;20025;-57
2023/03/27 02:08:49;;;;;;;10.50;7.60;;;;;;;6.10;72.03;98003.97;5018408;28;20045;-59
2023/03/27 02:11:14;;;;;;;25.83;15.55;;;;;;;6.02;71.59;98002.00;5035953;28;20359;-58
2023/03/27 02:13:46;;;;;;;13.30;9.38;;;;;;;5.98;71.81;97995.28;5035796;28;20033;-58
2023/03/27 02:16:17;;;;;;;15.45;9.57;;;;;;;5.96;71.74;98003.41;5035572;28;20022;-56
2023/03/27 02:18:51;;;;;;;24.77;13.90;;;;;;;5.96;71.89;98010.50;5022885;28;20364;-57
2023/03/27 02:21:16;;;;;;;34.05;20.25;;;;;;;5.92;72.17;98006.47;5015551;28;20030;-57
2023/03/27 02:23:42;;;;;;;15.23;9.60;;;;;;;5.88;71.87;98004.09;5015873;28;20502;-59
2023/03/27 02:26:12;;;;;;;11.93;8.20;;;;;;;5.73;71.70;97973.59;5015505;28;20045;-55
2023/03/27 02:28:43;;;;;;;21.38;13.85;;;;;;;5.91;72.16;98005.66;5015789;28;20072;-60
2023/03/27 02:31:35;;;;;;;18.48;10.82;;;;;;;5.85;72.32;98003.53;5015506;28;20030;-56
2023/03/27 02:34:38;;;;;;;14.85;10.07;;;;;;;5.95;71.93;98001.72;5014988;28;20040;-55
2023/03/27 02:37:25;;;;;;;18.10;11.25;;;;;;;5.95;72.31;98000.88;5015725;28;20136;-57
2023/03/27 02:40:00;;;;;;;19.17;10.23;;;;;;;5.87;72.07;97999.75;5015312;28;20049;-54
2023/03/27 02:43:11;;;;;;;21.48;11.95;;;;;;;5.80;72.31;97984.50;5015130;28;20041;-57
2023/03/27 02:46:01;;;;;;;8.23;6.30;;;;;;;5.89;71.64;98008.44;5015394;28;20326;-56
2023/03/27 02:48:39;;;;;;;8.20;5.75;;;;;;;5.86;71.87;98003.41;5015259;28;20038;-55
2023/03/27 02:51:18;;;;;;;7.85;5.30;;;;;;;5.71;71.62;97984.38;5015157;28;20152;-60
2023/03/27 02:53:49;;;;;;;12.48;7.65;;;;;;;5.84;71.76;98013.31;5015096;28;20118;-58
2023/03/27 02:56:18;;;;;;;24.40;12.70;;;;;;;5.78;71.91;98008.53;5014079;28;20041;-61
2023/03/27 02:58:48;;;;;;;13.32;8.77;;;;;;;5.77;71.53;98016.66;5015686;28;20037;-59
2023/03/27 03:01:17;;;;;;;14.18;8.23;;;;;;;5.75;72.22;98014.97;5015122;28;20329;-58
2023/03/27 03:04:11;;;;;;;9.60;6.70;;;;;;;5.78;71.75;98019.16;5013719;28;20048;-58
2023/03/27 03:06:40;;;;;;;11.52;8.48;;;;;;;5.71;71.99;98020.69;5021618;28;20431;-55
2023/03/27 03:09:08;;;;;;;10.98;8.43;;;;;;;5.71;72.32;98012.72;5034166;28;20034;-57
2023/03/27 03:11:37;;;;;;;15.73;10.43;;;;;;;5.79;72.50;98022.66;5034313;28;20409;-54
2023/03/27 03:14:02;;;;;;;17.98;12.02;;;;;;;5.78;72.08;98016.50;5034527;28;20455;-58
2023/03/27 03:16:29;;;;;;;21.65;13.55;;;;;;;5.83;72.08;98019.59;5034721;28;20025;-58
2023/03/27 03:18:55;;;;;;;17.20;10.60;;;;;;;5.83;71.41;98030.22;5032614;28;20112;-57
2023/03/27 03:21:21;;;;;;;16.15;10.73;;;;;;;5.78;71.94;98021.81;5033394;28;20053;-57
2023/03/27 03:23:46;;;;;;;19.27;12.05;;;;;;;5.53;71.47;97989.50;5034570;28;20080;-61
2023/03/27 03:26:12;;;;;;;18.85;13.07;;;;;;;5.82;71.75;98033.00;5029833;28;20025;-58
2023/03/27 03:28:38;;;;;;;24.10;13.90;;;;;;;5.81;71.46;98024.22;5013674;28;20354;-57
2023/03/27 03:31:04;;;;;;;22.92;14.82;;;;;;;5.82;72.19;98031.22;5014166;28;20099;-55
2023/03/27 03:33:30;;;;;;;24.17;15.05;;;;;;;5.82;72.08;98033.00;5013212;28;20033;-54
2023/03/27 03:36:00;;;;;;;24.15;15.80;;;;;;;5.81;72.40;98029.53;5014343;28;20034;-58
2023/03/27 03:38:28;;;;;;;26.58;16.40;;;;;;;5.75;71.83;98014.97;5013848;28;20532;-57
2023/03/27 03:40:55;;;;;;;27.00;16.65;;;;;;;5.83;72.10;98022.25;5014140;28;20068;-58
2023/03/27 03:43:26;;;;;;;34.90;19.40;;;;;;;5.89;71.92;98024.34;5014285;28;20067;-58
2023/03/27 03:45:52;;;;;;;27.20;16.90;;;;;;;5.87;72.19;98021.00;5020856;28;20115;-60
2023/03/27 03:48:19;;;;;;;24.40;15.32;;;;;;;5.68;71.67;97991.78;5033809;28;20041;-61
2023/03/27 03:50:45;;;;;;;28.30;16.50;;;;;;;5.84;71.58;98025.75;5034290;28;20467;-60
2023/03/27 03:53:12;;;;;;;23.98;13.55;;;;;;;5.87;71.52;98036.94;5032655;28;20130;-55
2023/03/27 03:55:38;;;;;;;24.00;14.68;;;;;;;5.86;71.50;98034.41;5033268;28;20123;-59
2023/03/27 03:58:04;;;;;;;27.95;15.27;;;;;;;5.90;71.61;98049.09;5034058;28;20037;-58
2023/03/27 04:00:33;;;;;;;21.50;13.05;;;;;;;5.94;71.29;98052.31;5006931;28;20030;-59
2023/03/27 04:02:59;;;;;;;24.35;13.13;;;;;;;5.93;71.24;98040.00;5013780;28;20117;-53
2023/03/27 04:05:24;;;;;;;23.67;12.50;;;;;;;5.94;70.88;98041.69;5020455;28;20110;-58
2023/03/27 04:07:50;;;;;;;19.95;12.43;;;;;;;5.96;70.93;98039.72;5033515;28;20048;-58
2023/03/27 04:10:16;;;;;;;21.00;12.65;;;;;;;5.77;70.59;98000.72;5020695;28;20036;-56
2023/03/27 04:12:48;;;;;;;17.13;10.57;;;;;;;6.00;70.70;98035.81;5013706;28;20038;-59
2023/03/27 04:15:15;;;;;;;18.02;10.02;;;;;;;5.97;70.49;98033.44;5013657;28;20045;-54
2023/03/27 04:17:41;;;;;;;18.90;10.93;;;;;;;5.97;70.26;98036.94;5013355;28;20044;-55
2023/03/27 04:20:07;;;;;;;20.50;10.95;;;;;;;6.00;70.30;98036.66;5020628;28;20017;-56
2023/03/27 04:22:36;;;;;;;22.13;11.20;;;;;;;6.03;70.45;98032.94;5038641;28;20506;-57
2023/03/27 04:25:06;;;;;;;18.15;10.68;;;;;;;5.91;70.36;97997.66;5041330;28;20024;-55
2023/03/27 04:27:34;;;;;;;19.23;10.38;;;;;;;6.11;69.90;98021.59;5042462;28;20360;-55
2023/03/27 04:30:01;;;;;;;20.50;11.80;;;;;;;6.17;70.01;98021.88;5041352;28;20091;-59
2023/03/27 04:32:27;;;;;;;20.05;11.68;;;;;;;6.27;70.13;98035.16;5041333;28;20056;-54
2023/03/27 04:34:55;;;;;;;20.10;10.93;;;;;;;6.34;69.48;98035.44;5041336;28;20033;-53
2023/03/27 04:37:22;;;;;;;17.80;11.23;;;;;;;6.40;69.41;98034.06;5041737;28;20119;-58
2023/03/27 04:39:47;;;;;;;20.63;12.20;;;;;;;6.43;69.15;98031.09;5042381;28;20377;-56
2023/03/27 04:42:13;;;;;;;18.50;11.15;;;;;;;6.41;69.32;98033.88;5040953;28;20066;-55
2023/03/27 04:44:40;;;;;;;20.60;12.40;;;;;;;6.40;69.51;98021.56;5040362;28;20134;-56
2023/03/27 04:47:09;;;;;;;21.58;12.80;;;;;;;6.45;69.07;98029.13;5037537;28;20036;-55
2023/03/27 04:49:49;;;;;;;19.98;12.18;;;;;;;6.51;68.92;98030.38;5037674;28;20396;-59
2023/03/27 04:52:16;;;;;;;22.42;11.93;;;;;;;6.57;69.23;98019.19;5038136;28;20044;-56
2023/03/27 04:54:41;;;;;;;21.55;12.85;;;;;;;6.68;68.60;98024.31;5041533;28;20041;-60
2023/03/27 04:57:08;;;;;;;21.60;12.75;;;;;;;6.73;68.55;98016.75;5040184;28;20032;-57
2023/03/27 04:59:35;;;;;;;19.50;11.65;;;;;;;6.80;68.28;98027.66;5040005;28;20326;-59
2023/03/27 05:02:01;;;;;;;20.73;11.90;;;;;;;6.84;68.18;98018.41;5041772;28;20032;-59
2023/03/27 05:04:28;;;;;;;21.77;12.70;;;;;;;6.87;68.16;98019.94;5042224;28;20025;-59
2023/03/27 05:06:55;;;;;;;23.73;13.98;;;;;;;6.81;68.22;98018.69;5037070;28;20033;-59
2023/03/27 05:09:21;;;;;;;23.38;13.43;;;;;;;6.87;68.15;98036.75;5041451;28;20032;-60
2023/03/27 05:11:48;;;;;;;25.63;14.25;;;;;;;6.85;68.08;98028.06;5042882;28;20040;-59
2023/03/27 05:14:18;;;;;;;26.20;14.48;;;;;;;6.90;68.34;98032.94;5042057;28;20036;-57
2023/03/27 05:16:44;;;;;;;22.45;13.68;;;;;;;6.85;68.46;98036.03;5048999;28;20048;-57
2023/03/27 05:19:10;;;;;;;24.70;13.90;;;;;;;6.83;68.21;98038.00;5052281;28;20187;-59
2023/03/27 05:21:38;;;;;;;24.17;13.82;;;;;;;6.79;68.69;98033.97;5041700;28;20030;-59
2023/03/27 05:24:04;;;;;;;26.05;14.25;;;;;;;6.81;68.63;98039.97;5032267;28;20033;-59
2023/03/27 05:26:31;;;;;;;26.75;14.82;;;;;;;6.83;68.83;98040.66;5034751;28;20043;-60
2023/03/27 05:28:58;;;;;;;26.50;15.27;;;;;;;6.82;68.85;98030.19;5041064;28;20033;-58
2023/03/27 05:31:24;;;;;;;26.02;15.73;;;;;;;6.83;68.58;98042.50;5039532;28;20044;-60
2023/03/27 05:33:51;;;;;;;24.48;15.05;;;;;;;6.86;69.21;98043.03;5041570;28;20035;-55
2023/03/27 05:36:21;;;;;;;24.95;14.38;;;;;;;6.86;69.08;98058.16;5041223;28;20033;-54
2023/03/27 05:38:46;;;;;;;25.05;14.48;;;;;;;6.68;69.13;98020.84;5039749;28;20041;-55
2023/03/27 05:41:14;;;;;;;21.13;13.27;;;;;;;6.87;69.41;98052.72;5033826;28;20080;-53
2023/03/27 05:43:41;;;;;;;23.40;13.13;;;;;;;6.89;68.82;98044.56;5011575;28;20054;-56
2023/03/27 05:46:07;;;;;;;22.40;12.38;;;;;;;6.91;69.05;98045.28;5022928;28;20025;-58
2023/03/27 05:48:32;;;;;;;20.88;12.40;;;;;;;6.99;69.20;98057.84;5011895;28;20120;-54
2023/03/27 05:50:58;;;;;;;21.05;13.02;;;;;;;7.00;69.33;98044.41;5011778;28;20415;-57
2023/03/27 05:53:23;;;;;;;22.52;13.07;;;;;;;7.07;69.03;98049.16;5011816;28;20022;-56
2023/03/27 05:55:49;;;;;;;22.35;13.00;;;;;;;7.13;69.21;98051.22;5012050;28;20034;-56
2023/03/27 05:58:15;;;;;;;18.55;11.30;;;;;;;7.18;68.61;98054.28;5027555;28;20026;-60
2023/03/27 06:00:41;;;;;;;19.30;12.32;;;;;;;7.11;68.57;98023.91;5040338;28;20083;-57
2023/03/27 06:03:09;;;;;;;18.88;11.45;;;;;;;7.32;68.40;98050.28;5041417;28;20021;-52
2023/03/27 06:05:36;;;;;;;22.00;12.52;;;;;;;7.38;68.19;98060.38;5042018;28;20028;-60
2023/03/27 06:08:02;;;;;;;18.30;11.48;;;;;;;7.38;68.15;98065.72;5036932;28;20042;-54
2023/03/27 06:10:29;;;;;;;16.13;10.73;;;;;;;7.43;68.02;98063.44;5041321;28;20113;-54
2023/03/27 06:13:00;;;;;;;16.92;11.23;;;;;;;7.40;68.09;98065.53;5040560;28;20110;-61
2023/03/27 06:15:26;;;;;;;17.77;11.50;;;;;;;7.40;68.22;98068.19;5032401;28;20461;-55
2023/03/27 06:17:52;;;;;;;18.40;11.02;;;;;;;7.39;68.32;98069.19;5042503;28;20132;-62
2023/03/27 06:20:20;;;;;;;14.38;9.98;;;;;;;7.42;68.60;98072.41;5042962;28;20375;-61
2023/03/27 06:22:48;;;;;;;16.35;10.23;;;;;;;7.47;68.51;98078.13;5045570;28;20040;-62
2023/03/27 06:25:14;;;;;;;15.35;10.35;;;;;;;7.46;68.73;98072.94;5044549;28;20029;-62
2023/03/27 06:27:42;;;;;;;17.02;10.70;;;;;;;7.51;68.58;98072.50;5044101;28;20021;-60
2023/03/27 06:30:09;;;;;;;14.88;10.20;;;;;;;7.53;68.86;98078.50;5044457;28;20060;-61
2023/03/27 06:32:36;;;;;;;13.68;10.00;;;;;;;7.51;68.51;98073.34;5051052;28;20037;-63
2023/03/27 06:35:02;;;;;;;20.70;9.65;;;;;;;7.47;68.80;98078.13;5055009;28;20192;-61
2023/03/27 06:37:32;;;;;;;14.70;9.27;;;;;;;7.40;68.94;98060.22;5034804;28;20033;-61
2023/03/27 06:39:59;;;;;;;14.55;9.18;;;;;;;7.36;69.29;98074.81;5034454;28;20123;-60
2023/03/27 06:42:24;;;;;;;14.18;9.32;;;;;;;7.30;69.25;98073.56;5034917;28;20041;-67
2023/03/27 06:44:50;;;;;;;15.65;9.25;;;;;;;7.31;69.17;98077.91;5033822;28;20332;-63
2023/03/27 06:47:15;;;;;;;17.00;9.23;;;;;;;7.26;69.33;98078.38;5033938;28;20110;-64
2023/03/27 06:49:46;;;;;;;12.70;8.82;;;;;;;7.29;69.40;98086.06;5033672;28;20021;-63
2023/03/27 06:52:12;;;;;;;14.23;9.23;;;;;;;7.26;69.60;98081.03;5033599;28;20116;-61
2023/03/27 06:54:38;;;;;;;14.85;9.73;;;;;;;7.37;69.97;98076.50;5031408;28;20357;-61
2023/03/27 06:57:04;;;;;;;15.15;9.43;;;;;;;7.44;69.57;98073.09;5015271;28;20034;-62
2023/03/27 06:59:29;;;;;;;24.42;16.00;;;;;;;7.61;69.13;98082.13;5015400;28;20034;-60
2023/03/27 07:01:55;;;;;;;24.83;14.15;;;;;;;7.74;68.56;98083.59;5015217;28;20037;-62
2023/03/27 07:04:20;;;;;;;19.67;11.82;;;;;;;7.84;68.03;98080.91;5015005;28;20038;-63
2023/03/27 07:06:47;;;;;;;17.15;10.40;;;;;;;7.93;67.90;98081.78;5025081;28;20064;-63
2023/03/27 07:09:13;;;;;;;18.63;10.40;;;;;;;8.02;66.98;98086.25;5034584;28;20475;-61
2023/03/27 07:11:39;;;;;;;14.70;9.25;;;;;;;8.00;67.25;98082.91;5033386;28;20025;-62
2023/03/27 07:14:04;;;;;;;14.63;9.05;;;;;;;7.98;67.22;98087.53;5034097;28;20036;-62
2023/03/27 07:16:30;;;;;;;14.90;8.98;;;;;;;7.97;66.96;98078.69;5015951;28;20034;-59
2023/03/27 07:18:56;;;;;;;13.38;8.75;;;;;;;8.06;66.53;98084.94;5021004;28;20037;-62
2023/03/27 07:21:22;;;;;;;12.82;8.55;;;;;;;8.12;66.29;98084.34;5034685;28;20037;-61
2023/03/27 07:23:47;;;;;;;17.83;9.73;;;;;;;8.22;66.21;98070.13;5034333;28;20030;-62
2023/03/27 07:26:13;;;;;;;15.02;9.30;;;;;;;8.36;65.79;98082.91;5034171;28;20422;-63
2023/03/27 07:28:38;;;;;;;15.68;9.82;;;;;;;8.53;65.07;98080.41;5034227;28;20514;-60
2023/03/27 07:31:09;;;;;;;15.13;9.35;;;;;;;8.61;64.63;98075.13;5033221;28;20040;-62
2023/03/27 07:33:35;;;;;;;15.02;9.35;;;;;;;8.69;64.75;98077.88;5026955;28;20026;-62
2023/03/27 07:36:05;;;;;;;12.65;9.23;;;;;;;8.82;64.46;98080.16;5014266;28;20072;-63
2023/03/27 07:38:32;;;;;;;14.05;9.05;;;;;;;8.90;63.35;98082.84;5014063;28;20136;-64
2023/03/27 07:41:04;;;;;;;17.20;10.20;;;;;;;8.97;63.12;98082.22;5013353;28;20038;-62
2023/03/27 07:43:30;;;;;;;15.23;9.50;;;;;;;9.04;63.04;98084.13;5023423;28;20179;-62
2023/03/27 07:45:56;;;;;;;16.73;9.65;;;;;;;9.33;62.61;98071.44;5027512;28;20461;-70
2023/03/27 07:48:21;;;;;;;19.48;9.60;;;;;;;9.79;60.99;98063.09;5035216;28;20024;-67
2023/03/27 07:50:47;;;;;;;15.00;9.50;;;;;;;10.43;59.30;98064.41;5043094;28;20023;-67
2023/03/27 07:53:13;;;;;;;14.52;9.65;;;;;;;11.23;57.35;98062.81;5026928;28;20450;-68
2023/03/27 07:55:40;;;;;;;12.32;9.63;;;;;;;11.84;54.67;98067.63;5039490;28;20037;-67
2023/03/27 07:58:06;;;;;;;14.60;9.52;;;;;;;12.04;53.79;98067.19;5015966;28;20037;-67
2023/03/27 08:00:34;;;;;;;15.73;9.40;;;;;;;12.09;54.13;98075.56;5033021;28;20033;-66
2023/03/27 08:03:05;;;;;;;14.45;9.38;;;;;;;12.14;54.14;98073.16;5032169;28;20041;-70
2023/03/27 08:05:31;;;;;;;12.77;9.18;;;;;;;11.88;53.71;98074.28;5016082;28;20126;-65
2023/03/27 08:07:56;;;;;;;12.65;8.43;;;;;;;11.57;54.59;98068.91;5031720;28;20114;-66
2023/03/27 08:10:22;;;;;;;13.93;8.95;;;;;;;11.36;55.05;98082.88;5028870;28;20104;-59
2023/03/27 08:12:47;;;;;;;13.82;9.07;;;;;;;11.01;55.81;98073.25;5042789;28;20128;-62
2023/03/27 08:15:13;;;;;;;14.60;8.88;;;;;;;10.71;56.80;98078.28;5042732;28;20048;-60
2023/03/27 08:17:38;;;;;;;10.43;8.45;;;;;;;10.48;57.50;98075.44;5042431;28;20025;-54
2023/03/27 08:20:08;;;;;;;13.27;8.13;;;;;;;10.24;58.17;98076.22;5038519;28;20101;-59
2023/03/27 08:22:35;;;;;;;12.32;8.40;;;;;;;10.13;58.22;98080.91;5033007;28;20025;-58
2023/03/27 08:25:02;;;;;;;12.48;8.27;;;;;;;9.83;58.83;98053.75;5034170;28;20352;-57
2023/03/27 08:27:30;;;;;;;10.82;7.80;;;;;;;9.96;58.98;98079.19;5041894;28;20112;-60
2023/03/27 08:29:57;;;;;;;11.02;8.15;;;;;;;9.96;58.89;98076.50;5037355;28;20036;-54
2023/03/27 08:32:22;;;;;;;11.57;7.82;;;;;;;9.96;58.55;98084.53;5038189;28;20032;-53
2023/03/27 08:34:48;;;;;;;8.18;7.05;;;;;;;9.95;58.14;98089.03;5043274;28;20036;-54
2023/03/27 08:37:14;;;;;;;9.82;7.50;;;;;;;9.94;58.14;98086.53;5044526;28;20105;-58
2023/03/27 08:39:39;;;;;;;9.38;7.95;;;;;;;9.88;58.61;98078.16;5040749;28;20466;-60
2023/03/27 08:42:12;;;;;;;12.65;7.90;;;;;;;10.03;58.42;98086.41;5041572;28;20356;-56
2023/03/27 08:44:38;;;;;;;10.18;7.45;;;;;;;10.20;57.83;98081.06;5033537;28;20034;-56
2023/03/27 08:47:14;;;;;;;8.45;7.03;;;;;;;10.50;56.89;98075.28;5036542;28;20121;-56
2023/03/27 08:49:51;;;;;;;9.65;8.07;;;;;;;11.01;56.65;98069.75;5037861;28;20025;-53
2023/03/27 08:52:21;;;;;;;11.23;8.23;;;;;;;11.59;54.41;98081.13;5037166;28;20072;-56
2023/03/27 08:54:57;;;;;;;11.27;8.40;;;;;;;12.09;53.17;98083.59;5039861;28;20028;-51
2023/03/27 08:57:27;;;;;;;9.95;8.13;;;;;;;12.26;52.06;98075.44;5038220;28;20123;-55
2023/03/27 08:59:57;;;;;;;9.60;7.72;;;;;;;12.38;51.49;98079.38;5017552;28;20038;-55
2023/03/27 09:02:34;;;;;;;11.65;8.00;;;;;;;12.64;51.85;98083.56;5027845;28;20033;-55
2023/03/27 09:05:25;;;;;;;11.18;8.50;;;;;;;12.99;52.06;98083.09;5012866;28;20030;-54
2023/03/27 09:08:17;;;;;;;11.77;9.15;;;;;;;13.13;51.18;98093.00;5020922;28;20358;-53
2023/03/27 09:10:46;;;;;;;15.95;8.98;;;;;;;12.92;49.84;98075.78;5034770;28;20052;-60
2023/03/27 09:13:30;;;;;;;11.63;8.18;;;;;;;13.05;50.61;98063.53;5039255;28;20025;-55
2023/03/27 09:16:01;;;;;;;10.85;7.80;;;;;;;13.34;49.77;98095.00;5037804;28;20025;-53
2023/03/27 09:18:29;;;;;;;10.57;7.97;;;;;;;13.44;48.39;98088.53;5038999;28;20025;-52
2023/03/27 09:21:06;;;;;;;11.55;8.45;;;;;;;13.52;49.07;98092.97;5038696;28;20049;-56
2023/03/27 09:23:42;;;;;;;10.70;8.13;;;;;;;13.44;48.30;98089.38;5040247;28;20411;-62
2023/03/27 09:26:22;;;;;;;12.05;8.48;;;;;;;13.40;48.76;98098.81;5040435;28;20032;-52
2023/03/27 09:29:16;;;;;;;9.38;7.57;;;;;;;13.40;49.68;98073.75;5040970;28;20415;-57
2023/03/27 09:31:50;;;;;;;10.77;7.57;;;;;;;13.48;48.84;98095.19;5040397;28;20099;-56
2023/03/27 09:34:42;;;;;;;14.93;9.02;;;;;;;13.67;49.37;98109.09;5013885;28;20478;-55
2023/03/27 09:37:11;;;;;;;12.00;7.78;;;;;;;13.45;47.87;98104.47;5012601;28;20131;-55
2023/03/27 09:39:42;;;;;;;15.07;7.90;;;;;;;13.47;48.28;98107.81;5011974;28;20050;-57
2023/03/27 09:42:21;;;;;;;8.88;7.97;;;;;;;13.67;47.92;98115.34;5018266;28;20114;-57
2023/03/27 09:44:54;;;;;;;11.25;7.38;;;;;;;13.72;47.43;98117.44;5016946;28;20030;-57
2023/03/27 09:47:48;;;;;;;9.23;6.95;;;;;;;13.91;47.86;98114.19;5023326;28;20443;-53
2023/03/27 09:50:23;;;;;;;10.57;6.60;;;;;;;14.02;46.43;98117.44;5031848;28;20083;-53
2023/03/27 09:52:51;;;;;;;11.13;7.80;;;;;;;13.87;46.66;98112.91;5032115;28;20037;-58
2023/03/27 09:55:29;;;;;;;13.43;7.80;;;;;;;13.74;47.85;98123.47;5035394;28;20040;-56
2023/03/27 09:58:09;;;;;;;7.60;6.63;;;;;;;13.60;47.95;98115.25;5034722;28;20022;-57
2023/03/27 10:00:35;;;;;;;7.30;6.28;;;;;;;13.54;47.39;98115.13;5024827;28;20322;-57
2023/03/27 10:03:06;;;;;;;6.90;6.18;;;;;;;13.51;47.69;98119.03;5019840;28;20038;-54
2023/03/27 10:05:33;;;;;;;8.10;6.40;;;;;;;13.33;47.10;98087.94;5017771;28;20030;-58
2023/03/27 10:08:00;;;;;;;11.57;6.70;;;;;;;13.48;47.81;98116.69;5038738;28;20355;-59
2023/03/27 10:10:30;;;;;;;8.52;6.78;;;;;;;13.42;48.44;98102.13;5044116;28;20104;-56
2023/03/27 10:12:58;;;;;;;9.80;7.10;;;;;;;13.49;47.62;98102.25;5042241;28;20037;-57
2023/03/27 10:15:35;;;;;;;10.70;6.10;;;;;;;13.39;48.43;98115.94;5037950;28;20025;-54
2023/03/27 10:18:05;;;;;;;9.90;5.88;;;;;;;12.96;48.53;98121.88;5042124;28;20096;-58
2023/03/27 10:20:31;;;;;;;8.13;5.53;;;;;;;12.72;48.98;98121.06;5042183;28;20037;-58
2023/03/27 10:23:05;;;;;;;10.32;5.78;;;;;;;12.68;49.66;98125.13;5044374;28;20036;-60
2023/03/27 10:25:41;;;;;;;9.65;6.20;;;;;;;12.62;49.23;98128.53;5045456;28;20040;-57
2023/03/27 10:28:15;;;;;;;10.10;5.80;;;;;;;12.51;49.86;98131.63;5043152;28;20114;-60
2023/03/27 10:30:41;;;;;;;9.90;5.70;;;;;;;12.40;50.12;98131.03;5039022;28;20052;-57
2023/03/27 10:33:06;;;;;;;8.82;5.32;;;;;;;12.40;49.74;98130.19;5044660;28;20041;-61
2023/03/27 10:35:38;;;;;;;10.38;5.70;;;;;;;12.41;50.05;98143.44;5023811;28;20030;-60
2023/03/27 10:38:16;;;;;;;14.27;6.32;;;;;;;12.18;50.59;98104.00;5014540;28;20511;-55
2023/03/27 10:40:48;;;;;;;7.85;5.53;;;;;;;12.45;50.31;98128.66;5015502;28;20050;-54
2023/03/27 10:43:38;;;;;;;10.43;5.95;;;;;;;12.85;50.22;98133.88;5015204;28;20068;-55
2023/03/27 10:46:09;;;;;;;9.70;6.03;;;;;;;12.89;48.81;98108.34;5000044;28;20369;-61
2023/03/27 10:48:37;;;;;;;12.55;6.97;;;;;;;13.25;48.36;98144.44;5035319;28;20052;-55
2023/03/27 10:51:07;;;;;;;9.20;5.95;;;;;;;13.40;47.68;98136.44;5034922;28;20050;-53
2023/03/27 10:53:41;;;;;;;10.23;6.10;;;;;;;13.60;47.65;98147.50;5033853;28;20032;-55
2023/03/27 10:56:18;;;;;;;10.65;6.03;;;;;;;13.78;47.25;98151.69;5029654;28;20715;-56
2023/03/27 10:58:48;;;;;;;10.75;6.78;;;;;;;13.81;46.58;98143.25;4997891;28;20082;-55
2023/03/27 11:01:40;;;;;;;26.85;6.95;;;;;;;13.94;47.49;98142.59;5016248;28;20469;-56
2023/03/27 11:04:09;;;;;;;16.90;8.15;;;;;;;13.80;46.69;98146.97;5033513;28;20120;-56
2023/03/27 11:06:39;;;;;;;8.38;6.32;;;;;;;13.61;46.90;98143.78;5032702;28;20037;-56
2023/03/27 11:09:14;;;;;;;8.10;6.13;;;;;;;13.40;47.94;98151.72;5031533;28;20036;-60
2023/03/27 11:11:51;;;;;;;11.57;7.22;;;;;;;13.22;48.76;98150.19;5024343;28;20084;-56
2023/03/27 11:14:22;;;;;;;8.50;6.43;;;;;;;12.90;48.92;98152.16;5040587;28;20070;-56
2023/03/27 11:16:54;;;;;;;8.52;6.05;;;;;;;12.64;49.76;98135.38;5039914;28;20029;-57
2023/03/27 11:19:42;;;;;;;13.10;6.93;;;;;;;12.60;49.94;98155.56;5023994;28;20423;-57
2023/03/27 11:22:40;;;;;;;9.95;6.05;;;;;;;12.55;50.60;98160.63;5035126;28;20033;-53
2023/03/27 11:25:31;;;;;;;9.32;6.20;;;;;;;12.51;50.95;98147.72;5014277;28;20065;-53
2023/03/27 11:28:12;;;;;;;9.93;5.88;;;;;;;12.44;50.79;98158.38;5026205;28;20047;-55
2023/03/27 11:30:47;;;;;;;9.80;6.00;;;;;;;12.35;50.97;98155.72;5040880;28;20021;-56
2023/03/27 11:33:25;;;;;;;9.60;5.93;;;;;;;12.29;51.17;98166.31;5042910;28;20109;-57
2023/03/27 11:36:29;;;;;;;11.18;6.47;;;;;;;12.24;51.94;98171.38;5042428;28;20060;-56
2023/03/27 11:39:06;;;;;;;15.45;7.18;;;;;;;12.07;51.73;98176.84;5041000;28;20046;-61
2023/03/27 11:41:32;;;;;;;8.90;6.32;;;;;;;11.94;51.88;98173.81;5041382;28;20417;-52
2023/03/27 11:43:57;;;;;;;8.18;6.32;;;;;;;11.91;52.27;98181.22;5041279;28;20460;-56
2023/03/27 11:46:26;;;;;;;7.90;6.55;;;;;;;12.02;52.18;98181.84;5045964;28;20025;-56